Time;durP1;ratioP1;P1;durP2;ratioP2;P2;SDS_P1;SDS_P2;PMS_P1;PMS_P2;Temp;Humidity;BMP_temperature;BMP_pressure;BME280_temperature;BME280_humidity;BME280_pressure;Samples;Min_cycle;Max_cycle;Signal;HPM_P1;HPM_P2
2022/09/14 00:01:11;;;;;;;4.40;1.30;;;15.70;99.90;;;;;;5012317;28;20022;-46
2022/09/14 00:03:37;;;;;;;4.70;1.52;;;15.70;99.90;;;;;;5012198;28;20017;-43
2022/09/14 00:06:08;;;;;;;6.82;1.80;;;15.70;99.90;;;;;;5012282;28;20048;-46
2022/09/14 00:08:34;;;;;;;5.90;1.30;;;15.70;99.90;;;;;;5012629;28;20040;-45
2022/09/14 00:11:06;;;;;;;6.68;1.50;;;15.70;99.90;;;;;;5012091;28;20089;-52
2022/09/14 00:13:33;;;;;;;4.40;1.40;;;15.70;99.90;;;;;;5012418;28;20034;-51
2022/09/14 00:16:09;;;;;;;4.75;1.50;;;15.60;99.90;;;;;;5012151;28;20026;-46
2022/09/14 00:18:35;;;;;;;5.68;1.42;;;15.60;99.90;;;;;;5011882;28;20401;-44
2022/09/14 00:21:04;;;;;;;6.40;1.45;;;15.70;99.90;;;;;;5011704;28;20393;-44
2022/09/14 00:23:29;;;;;;;4.72;1.60;;;15.60;99.90;;;;;;5012113;28;20026;-43
2022/09/14 00:26:02;;;;;;;5.18;1.55;;;15.60;99.90;;;;;;5011972;28;20113;-50
2022/09/14 00:28:27;;;;;;;4.95;1.27;;;15.60;99.90;;;;;;5012090;28;20026;-43
2022/09/14 00:30:53;;;;;;;5.47;1.17;;;15.60;99.90;;;;;;5011712;28;20030;-46
2022/09/14 00:33:19;;;;;;;6.25;1.35;;;15.60;99.90;;;;;;5011980;28;20045;-47
2022/09/14 00:35:44;;;;;;;3.03;1.35;;;15.50;99.90;;;;;;5003013;28;20022;-47
2022/09/14 00:38:10;;;;;;;5.63;1.45;;;15.50;99.90;;;;;;5006731;28;20026;-49
2022/09/14 00:40:36;;;;;;;4.82;1.60;;;15.60;99.90;;;;;;5011830;28;20033;-51
2022/09/14 00:43:02;;;;;;;4.13;1.40;;;15.60;99.90;;;;;;5011478;28;20033;-53
2022/09/14 00:45:28;;;;;;;5.72;1.63;;;15.60;99.90;;;;;;5011567;28;20389;-43
2022/09/14 00:47:55;;;;;;;3.55;1.27;;;15.50;99.90;;;;;;5011662;28;20029;-45
2022/09/14 00:50:22;;;;;;;3.88;1.60;;;15.50;99.90;;;;;;5011581;28;20543;-50
2022/09/14 00:52:49;;;;;;;4.47;1.30;;;15.60;99.90;;;;;;5011804;28;20037;-48
2022/09/14 00:55:21;;;;;;;3.97;1.52;;;15.50;99.90;;;;;;5011512;28;20479;-46
2022/09/14 00:57:49;;;;;;;5.57;1.50;;;15.60;99.90;;;;;;5011545;28;20509;-53
2022/09/14 01:00:19;;;;;;;8.07;1.90;;;15.60;99.90;;;;;;5011318;28;20061;-54
2022/09/14 01:02:45;;;;;;;5.78;1.50;;;15.60;99.90;;;;;;5011332;28;20263;-47
2022/09/14 01:05:11;;;;;;;4.32;1.33;;;15.50;99.90;;;;;;5011431;28;20113;-45
2022/09/14 01:08:01;;;;;;;2.65;1.50;;;15.50;99.90;;;;;;5011376;28;20030;-46
2022/09/14 01:10:42;;;;;;;6.55;1.63;;;15.60;99.90;;;;;;5011007;28;20527;-56
2022/09/14 01:13:33;;;;;;;3.63;1.90;;;15.50;99.90;;;;;;5011362;28;20405;-52
2022/09/14 01:16:21;;;;;;;4.72;1.50;;;15.60;99.90;;;;;;5011359;28;20033;-46
2022/09/14 01:18:58;;;;;;;5.90;1.80;;;15.50;99.90;;;;;;5003802;28;20140;-43
2022/09/14 01:21:32;;;;;;;5.43;1.58;;;15.60;99.90;;;;;;4998380;28;20022;-50
2022/09/14 01:24:05;;;;;;;9.20;2.05;;;15.50;99.90;;;;;;5011472;28;20037;-43
2022/09/14 01:26:52;;;;;;;3.22;1.70;;;15.60;99.90;;;;;;4998333;28;20485;-47
2022/09/14 01:29:27;;;;;;;4.28;1.48;;;15.60;99.90;;;;;;5011056;28;20026;-52
2022/09/14 01:32:04;;;;;;;4.60;1.63;;;15.60;99.90;;;;;;5010918;28;20109;-48
2022/09/14 01:34:53;;;;;;;5.38;1.60;;;15.60;99.90;;;;;;4996819;28;20044;-43
2022/09/14 01:37:25;;;;;;;4.03;1.95;;;15.60;99.90;;;;;;5003294;28;20366;-46
2022/09/14 01:40:00;;;;;;;6.15;2.00;;;15.60;99.90;;;;;;5014744;28;20042;-46
2022/09/14 01:42:28;;;;;;;11.70;5.75;;;15.60;99.90;;;;;;5014966;28;20429;-48
2022/09/14 01:44:57;;;;;;;8.52;2.30;;;15.60;99.90;;;;;;5014939;28;20114;-42
2022/09/14 01:47:54;;;;;;;2.60;1.58;;;15.60;99.90;;;;;;5015005;28;20029;-43
2022/09/14 01:50:27;;;;;;;2.40;1.42;;;15.60;99.90;;;;;;5013790;28;20065;-43
2022/09/14 01:53:04;;;;;;;7.00;1.90;;;15.60;99.90;;;;;;5014921;28;20493;-43
2022/09/14 01:55:53;;;;;;;6.10;2.22;;;15.60;99.90;;;;;;5014718;28;20034;-43
2022/09/14 01:58:34;;;;;;;4.10;2.08;;;15.60;99.90;;;;;;5014677;28;20101;-52
2022/09/14 02:01:03;;;;;;;4.90;1.95;;;15.70;99.90;;;;;;5002091;28;20061;-45
2022/09/14 02:03:36;;;;;;;4.75;1.92;;;15.60;99.90;;;;;;5014613;28;20052;-44
2022/09/14 02:06:28;;;;;;;3.20;1.70;;;15.60;99.90;;;;;;5014738;28;20125;-52
2022/09/14 02:08:54;;;;;;;3.85;1.70;;;15.60;99.90;;;;;;5014002;28;20073;-48
2022/09/14 02:11:20;;;;;;;3.97;2.13;;;15.60;99.90;;;;;;5014465;28;20073;-46
2022/09/14 02:13:45;;;;;;;3.97;1.83;;;15.60;99.90;;;;;;5014541;28;20030;-53
2022/09/14 02:16:11;;;;;;;5.85;2.05;;;15.60;99.90;;;;;;5014312;28;20030;-46
2022/09/14 02:18:38;;;;;;;4.57;1.80;;;15.70;99.90;;;;;;5014362;28;20034;-51
2022/09/14 02:21:10;;;;;;;4.93;1.85;;;15.70;99.90;;;;;;5014421;28;20048;-48
2022/09/14 02:23:36;;;;;;;3.78;1.63;;;15.60;99.90;;;;;;5014228;28;20105;-49
2022/09/14 02:26:03;;;;;;;4.38;2.42;;;15.70;99.90;;;;;;5014338;28;20108;-47
2022/09/14 02:28:29;;;;;;;4.72;1.90;;;15.70;99.90;;;;;;5014338;28;20022;-44
2022/09/14 02:31:16;;;;;;;4.88;1.70;;;15.70;99.90;;;;;;5013382;28;20129;-44
2022/09/14 02:34:01;;;;;;;3.47;1.73;;;15.70;99.90;;;;;;5010043;28;20072;-43
2022/09/14 02:36:32;;;;;;;4.75;2.40;;;15.70;99.90;;;;;;5000241;28;20048;-46
2022/09/14 02:39:04;;;;;;;4.05;1.85;;;15.70;99.90;;;;;;5013920;28;20489;-48
2022/09/14 02:41:38;;;;;;;2.47;1.67;;;15.70;99.90;;;;;;5013896;28;20033;-45
2022/09/14 02:44:29;;;;;;;3.92;1.77;;;15.70;99.90;;;;;;5013794;28;20054;-44
2022/09/14 02:47:25;;;;;;;3.35;1.88;;;15.70;99.90;;;;;;5013328;28;20092;-54
2022/09/14 02:50:01;;;;;;;4.47;1.90;;;15.70;99.90;;;;;;5012701;28;20500;-51
2022/09/14 02:52:51;;;;;;;4.28;1.80;;;15.80;99.90;;;;;;5013807;28;20018;-50
2022/09/14 02:55:20;;;;;;;4.35;2.42;;;15.70;99.90;;;;;;5013744;28;20041;-48
2022/09/14 02:58:09;;;;;;;4.53;2.00;;;15.70;99.90;;;;;;5013608;28;20013;-44
2022/09/14 03:00:37;;;;;;;;;;;15.70;99.90;;;;;;5013893;28;20045;-47
2022/09/14 03:03:07;;;;;;;4.63;1.80;;;15.70;99.90;;;;;;5013667;28;19915;-49
2022/09/14 03:05:33;;;;;;;3.45;1.80;;;15.70;99.90;;;;;;5013423;28;20034;-51
2022/09/14 03:08:00;;;;;;;5.40;1.92;;;15.70;99.90;;;;;;5013543;28;20062;-50
2022/09/14 03:10:27;;;;;;;5.82;2.20;;;15.70;99.90;;;;;;5013250;28;20073;-50
2022/09/14 03:12:52;;;;;;;3.72;1.98;;;15.70;99.90;;;;;;5013446;28;20508;-45
2022/09/14 03:15:18;;;;;;;4.10;2.00;;;15.80;99.90;;;;;;5013389;28;20033;-43
2022/09/14 03:17:46;;;;;;;8.75;2.85;;;15.80;99.90;;;;;;5013169;28;20097;-53
2022/09/14 03:20:13;;;;;;;4.32;2.00;;;15.80;99.90;;;;;;5013219;28;20060;-46
2022/09/14 03:22:38;;;;;;;5.10;2.20;;;15.90;99.90;;;;;;5013133;28;20022;-50
2022/09/14 03:25:04;;;;;;;4.05;2.03;;;15.80;99.90;;;;;;5013372;28;20029;-54
2022/09/14 03:27:30;;;;;;;3.30;2.05;;;15.80;99.90;;;;;;5005135;28;20389;-47
2022/09/14 03:29:56;;;;;;;4.38;2.00;;;15.80;99.90;;;;;;5013173;28;20414;-47
2022/09/14 03:32:21;;;;;;;3.83;2.20;;;15.80;99.90;;;;;;5012962;28;20276;-49
2022/09/14 03:34:47;;;;;;;2.95;1.80;;;15.80;99.90;;;;;;5011713;28;20045;-47
2022/09/14 03:37:12;;;;;;;4.47;2.00;;;15.80;99.90;;;;;;5000344;28;20026;-49
2022/09/14 03:39:38;;;;;;;4.57;2.28;;;15.80;99.90;;;;;;5012860;28;20549;-48
2022/09/14 03:42:04;;;;;;;4.00;1.90;;;15.80;99.90;;;;;;5012763;28;20029;-53
2022/09/14 03:44:29;;;;;;;2.53;1.45;;;15.70;99.90;;;;;;5003219;28;20033;-46
2022/09/14 03:46:55;;;;;;;2.78;1.48;;;15.80;99.90;;;;;;4992979;28;20027;-46
2022/09/14 03:49:20;;;;;;;6.50;1.50;;;15.70;99.90;;;;;;4996578;28;20125;-54
2022/09/14 03:51:46;;;;;;;2.63;1.45;;;15.70;99.90;;;;;;5012729;28;20021;-54
2022/09/14 03:54:11;;;;;;;5.10;1.67;;;15.70;99.90;;;;;;4998825;28;20037;-54
2022/09/14 03:56:37;;;;;;;3.63;1.63;;;15.70;99.90;;;;;;5011842;28;20049;-46
2022/09/14 03:59:03;;;;;;;3.90;1.40;;;15.70;99.90;;;;;;5012377;28;20556;-50
2022/09/14 04:01:29;;;;;;;4.15;1.48;;;15.70;99.90;;;;;;5008779;28;20026;-51
2022/09/14 04:03:54;;;;;;;3.97;1.42;;;15.70;99.90;;;;;;5005656;28;20029;-47
2022/09/14 04:06:20;;;;;;;3.58;1.10;;;15.70;99.90;;;;;;5007172;28;20030;-48
2022/09/14 04:08:46;;;;;;;6.65;1.42;;;15.70;99.90;;;;;;5003489;28;20034;-45
2022/09/14 04:11:14;;;;;;;2.90;1.27;;;15.70;99.90;;;;;;5002421;28;20046;-45
2022/09/14 04:13:41;;;;;;;4.50;1.33;;;15.70;99.90;;;;;;5010481;28;20030;-47
2022/09/14 04:16:07;;;;;;;3.70;1.58;;;15.70;99.90;;;;;;5007948;28;20101;-51
2022/09/14 04:18:33;;;;;;;4.60;1.40;;;15.70;99.90;;;;;;5008410;28;20026;-46
2022/09/14 04:21:11;;;;;;;3.33;1.70;;;15.70;99.90;;;;;;5006372;28;20049;-47
2022/09/14 04:23:37;;;;;;;2.22;1.15;;;15.70;99.90;;;;;;4992493;28;20041;-56
2022/09/14 04:26:12;;;;;;;4.53;1.48;;;15.70;99.90;;;;;;4995366;28;20030;-49
2022/09/14 04:28:39;;;;;;;4.40;1.80;;;15.70;99.90;;;;;;4998351;28;20477;-49
2022/09/14 04:31:05;;;;;;;4.45;1.52;;;15.70;99.90;;;;;;4997973;28;20065;-52
2022/09/14 04:33:34;;;;;;;6.43;1.52;;;15.70;99.90;;;;;;4992890;28;20050;-44
2022/09/14 04:36:10;;;;;;;;;;;15.70;99.90;;;;;;4995714;28;20480;-46
2022/09/14 04:38:37;;;;;;;4.38;1.52;;;15.80;99.90;;;;;;5009127;28;19909;-52
2022/09/14 04:41:17;;;;;;;3.03;1.40;;;15.70;99.90;;;;;;4992788;28;20066;-53
2022/09/14 04:43:44;;;;;;;2.72;1.33;;;15.80;99.90;;;;;;4998228;28;20075;-45
2022/09/14 04:46:12;;;;;;;2.92;1.60;;;15.80;99.90;;;;;;5003299;28;20030;-44
2022/09/14 04:48:37;;;;;;;3.30;1.60;;;15.80;99.90;;;;;;4993631;28;20026;-44
2022/09/14 04:51:05;;;;;;;5.05;1.65;;;15.80;99.90;;;;;;4992150;28;20027;-47
2022/09/14 04:53:33;;;;;;;2.95;1.50;;;15.80;99.90;;;;;;4993272;28;20512;-46
2022/09/14 04:56:04;;;;;;;3.65;1.70;;;15.80;99.90;;;;;;5010205;28;20034;-49
2022/09/14 04:58:29;;;;;;;3.50;1.80;;;15.80;99.90;;;;;;5011349;28;20072;-48
2022/09/14 05:01:04;;;;;;;6.10;1.88;;;15.80;99.90;;;;;;5010307;28;20030;-52
2022/09/14 05:03:29;;;;;;;3.20;1.70;;;15.80;99.90;;;;;;5009602;28;20497;-48
2022/09/14 05:06:00;;;;;;;5.90;1.85;;;15.80;99.90;;;;;;5009087;28;20068;-44
2022/09/14 05:08:25;;;;;;;5.28;2.03;;;15.80;99.90;;;;;;5008522;28;20026;-50
2022/09/14 05:10:55;;;;;;;3.33;1.80;;;15.80;99.90;;;;;;5009342;28;20124;-52
2022/09/14 05:13:20;;;;;;;;;;;15.80;99.90;;;;;;5009914;28;20022;-54
2022/09/14 05:15:46;;;;;;;5.18;2.42;;;15.80;99.90;;;;;;5010065;28;19905;-43
2022/09/14 05:18:11;;;;;;;5.13;2.13;;;15.80;99.90;;;;;;5011319;28;20033;-48
2022/09/14 05:20:37;;;;;;;4.53;2.20;;;15.80;99.90;;;;;;5010524;28;20037;-55
2022/09/14 05:23:03;;;;;;;3.92;2.20;;;15.90;99.90;;;;;;5010593;28;20100;-43
2022/09/14 05:25:28;;;;;;;4.15;2.35;;;15.90;99.90;;;;;;5008294;28;20117;-44
2022/09/14 05:27:54;;;;;;;6.85;2.42;;;15.80;99.90;;;;;;5007780;28;20428;-43
2022/09/14 05:30:20;;;;;;;4.88;2.45;;;15.80;99.90;;;;;;5010542;28;20028;-44
2022/09/14 05:32:45;;;;;;;6.63;2.78;;;15.80;99.90;;;;;;5007435;28;20034;-46
2022/09/14 05:35:11;;;;;;;7.45;2.25;;;15.80;99.90;;;;;;5002328;28;20014;-47
2022/09/14 05:37:36;;;;;;;5.75;2.35;;;15.70;99.90;;;;;;4993681;28;20526;-43
2022/09/14 05:40:04;;;;;;;4.28;2.30;;;15.80;99.90;;;;;;4991515;28;20046;-43
2022/09/14 05:42:29;;;;;;;4.40;2.45;;;15.80;99.90;;;;;;4991570;28;20023;-52
2022/09/14 05:44:55;;;;;;;4.63;2.47;;;15.80;99.90;;;;;;4991321;28;20053;-51
2022/09/14 05:47:21;;;;;;;7.85;3.00;;;15.80;99.90;;;;;;4995493;28;20453;-48
2022/09/14 05:49:46;;;;;;;5.07;2.50;;;15.80;99.90;;;;;;4991589;28;20085;-47
2022/09/14 05:52:12;;;;;;;5.20;2.42;;;15.80;99.90;;;;;;4991393;28;20027;-45
2022/09/14 05:54:37;;;;;;;4.82;2.55;;;15.80;99.90;;;;;;5002002;28;20501;-47
2022/09/14 05:57:03;;;;;;;6.05;2.67;;;15.80;99.90;;;;;;5010648;28;20038;-45
2022/09/14 05:59:30;;;;;;;6.78;2.40;;;15.80;99.90;;;;;;5010918;28;20048;-46
2022/09/14 06:01:57;;;;;;;6.30;2.20;;;15.80;99.90;;;;;;5010712;28;20042;-51
2022/09/14 06:04:23;;;;;;;7.05;2.60;;;15.90;99.90;;;;;;5010867;28;20043;-49
2022/09/14 06:06:48;;;;;;;5.35;2.67;;;15.80;99.90;;;;;;5010955;28;20034;-51
2022/09/14 06:09:15;;;;;;;7.43;2.78;;;15.80;99.90;;;;;;5010377;28;20396;-55
2022/09/14 06:11:41;;;;;;;5.93;2.63;;;15.80;99.90;;;;;;5010850;28;20034;-45
2022/09/14 06:14:07;;;;;;;4.03;2.28;;;15.80;99.90;;;;;;4993116;28;20181;-50
2022/09/14 06:16:33;;;;;;;6.03;2.90;;;15.80;99.90;;;;;;5010644;28;20032;-43
2022/09/14 06:18:59;;;;;;;5.43;2.17;;;15.80;99.90;;;;;;5011175;28;20034;-44
2022/09/14 06:21:30;;;;;;;7.28;2.22;;;15.80;99.90;;;;;;5014385;28;20545;-51
2022/09/14 06:23:56;;;;;;;4.93;1.88;;;15.80;99.90;;;;;;5014242;28;20110;-45
2022/09/14 06:26:22;;;;;;;5.32;1.88;;;15.80;99.90;;;;;;5014135;28;20105;-45
2022/09/14 06:28:48;;;;;;;4.60;2.08;;;15.80;99.90;;;;;;5014221;28;20209;-48
2022/09/14 06:31:16;;;;;;;6.88;1.80;;;15.80;99.90;;;;;;5013485;28;20041;-45
2022/09/14 06:33:46;;;;;;;4.68;1.80;;;15.80;99.90;;;;;;5003603;28;20393;-47
2022/09/14 06:36:13;;;;;;;;;;;15.70;99.90;;;;;;4997356;28;20030;-43
2022/09/14 06:38:39;;;;;;;6.45;1.52;;;15.80;99.90;;;;;;4994308;28;20005;-48
2022/09/14 06:41:07;;;;;;;5.63;1.83;;;15.80;99.90;;;;;;4998814;28;20547;-46
2022/09/14 06:43:40;;;;;;;5.22;1.77;;;15.80;99.90;;;;;;5004211;28;20025;-49
2022/09/14 06:46:17;;;;;;;6.03;1.70;;;15.80;99.90;;;;;;4998272;28;20095;-54
2022/09/14 06:48:47;;;;;;;4.30;1.58;;;15.80;99.90;;;;;;4994296;28;20106;-56
2022/09/14 06:51:19;;;;;;;3.13;1.52;;;15.70;99.90;;;;;;5011086;28;20022;-45
2022/09/14 06:53:46;;;;;;;2.38;1.38;;;15.70;99.90;;;;;;5007498;28;20034;-51
2022/09/14 06:56:12;;;;;;;2.47;1.20;;;15.70;99.90;;;;;;5006195;28;20031;-46
2022/09/14 06:58:38;;;;;;;3.45;1.27;;;15.70;99.90;;;;;;5010359;28;20034;-47
2022/09/14 07:01:16;;;;;;;4.47;1.73;;;15.70;99.90;;;;;;5012494;28;20042;-47
2022/09/14 07:03:42;;;;;;;3.58;1.50;;;15.70;99.90;;;;;;5011819;28;20025;-44
2022/09/14 07:06:14;;;;;;;4.15;1.45;;;15.70;99.90;;;;;;5012365;28;20053;-44
2022/09/14 07:08:40;;;;;;;5.82;1.70;;;15.70;99.90;;;;;;5003932;28;20019;-47
2022/09/14 07:11:08;;;;;;;3.90;1.40;;;15.70;99.90;;;;;;4993676;28;20046;-48
2022/09/14 07:13:34;;;;;;;3.75;1.50;;;15.70;99.90;;;;;;5007000;28;20084;-48
2022/09/14 07:16:02;;;;;;;4.97;1.30;;;15.70;99.90;;;;;;4998735;28;20030;-45
2022/09/14 07:18:31;;;;;;;3.20;1.40;;;15.70;99.90;;;;;;5006018;28;20461;-49
2022/09/14 07:21:11;;;;;;;;;;;15.70;99.90;;;;;;4996228;28;20034;-48
2022/09/14 07:23:39;;;;;;;2.25;1.40;;;15.70;99.90;;;;;;5000632;28;20365;-51
2022/09/14 07:26:14;;;;;;;3.25;1.48;;;15.70;99.90;;;;;;4994450;28;20397;-43
2022/09/14 07:28:40;;;;;;;5.07;1.83;;;15.70;99.90;;;;;;4993513;28;20485;-45
2022/09/14 07:31:17;;;;;;;4.13;1.75;;;15.70;99.90;;;;;;4998646;28;20101;-47
2022/09/14 07:33:44;;;;;;;4.07;1.80;;;15.70;99.90;;;;;;4993405;28;20121;-46
2022/09/14 07:36:11;;;;;;;5.25;1.80;;;15.70;99.90;;;;;;4993155;28;20040;-46
2022/09/14 07:38:37;;;;;;;3.05;1.50;;;15.70;99.90;;;;;;4993244;28;20054;-45
2022/09/14 07:41:03;;;;;;;3.55;1.48;;;15.80;99.90;;;;;;4998915;28;20041;-50
2022/09/14 07:43:29;;;;;;;3.38;1.70;;;15.80;99.90;;;;;;4995491;28;20030;-45
2022/09/14 07:45:55;;;;;;;7.00;1.70;;;15.80;99.90;;;;;;4992944;28;20295;-45
2022/09/14 07:48:22;;;;;;;5.97;1.80;;;15.80;99.90;;;;;;4992913;28;20433;-48
2022/09/14 07:50:57;;;;;;;3.95;1.90;;;15.80;99.90;;;;;;4991984;28;20034;-44
2022/09/14 07:53:23;;;;;;;3.78;1.60;;;15.80;99.90;;;;;;4993349;28;20045;-51
2022/09/14 07:55:48;;;;;;;6.25;1.70;;;15.90;99.90;;;;;;4995039;28;20026;-43
2022/09/14 07:58:14;;;;;;;5.55;1.73;;;15.90;99.90;;;;;;5012262;28;20032;-45
2022/09/14 08:00:40;;;;;;;3.35;1.70;;;15.90;99.90;;;;;;5012305;28;20030;-52
2022/09/14 08:03:06;;;;;;;5.85;1.70;;;15.90;99.90;;;;;;5011701;28;20037;-52
2022/09/14 08:05:32;;;;;;;3.95;1.63;;;16.00;99.90;;;;;;5001944;28;20126;-43
2022/09/14 08:07:58;;;;;;;6.35;2.00;;;15.90;99.90;;;;;;4992792;28;20026;-48
2022/09/14 08:10:25;;;;;;;5.20;1.75;;;15.90;99.90;;;;;;5002590;28;20061;-52
2022/09/14 08:12:54;;;;;;;3.92;1.77;;;16.00;99.90;;;;;;5008645;28;20026;-47
2022/09/14 08:15:21;;;;;;;;;;;16.00;99.90;;;;;;4998805;28;20025;-49
2022/09/14 08:17:47;;;;;;;4.20;2.00;;;16.00;99.90;;;;;;5001561;28;19914;-46
2022/09/14 08:20:14;;;;;;;3.17;1.90;;;16.00;99.90;;;;;;4992426;28;20038;-45
2022/09/14 08:22:40;;;;;;;4.05;1.90;;;16.10;99.90;;;;;;4992471;28;20023;-49
2022/09/14 08:25:06;;;;;;;4.40;1.98;;;16.10;99.90;;;;;;4992544;28;20041;-44
2022/09/14 08:27:31;;;;;;;3.40;1.67;;;16.10;99.90;;;;;;5005643;28;20040;-55
2022/09/14 08:29:57;;;;;;;4.15;1.73;;;16.10;99.90;;;;;;4992365;28;20026;-46
2022/09/14 08:32:23;;;;;;;5.00;1.80;;;16.10;99.90;;;;;;5002018;28;20022;-51
2022/09/14 08:34:50;;;;;;;5.32;1.63;;;16.10;99.90;;;;;;4992590;28;20153;-50
2022/09/14 08:37:16;;;;;;;3.97;1.98;;;16.10;99.90;;;;;;4992012;28;20018;-49
2022/09/14 08:39:42;;;;;;;4.13;2.03;;;16.10;99.90;;;;;;4998304;28;20053;-51
2022/09/14 08:42:17;;;;;;;3.50;1.80;;;16.10;99.90;;;;;;5008490;28;20025;-54
2022/09/14 08:44:54;;;;;;;6.00;1.73;;;16.10;99.90;;;;;;5005299;28;20489;-53
2022/09/14 08:47:31;;;;;;;5.25;2.10;;;16.10;99.90;;;;;;5011246;28;20473;-49
2022/09/14 08:50:17;;;;;;;5.68;1.60;;;16.20;99.90;;;;;;4993595;28;20026;-48
2022/09/14 08:52:52;;;;;;;4.38;1.70;;;16.20;99.90;;;;;;4991758;28;20026;-47
2022/09/14 08:55:40;;;;;;;5.07;1.90;;;16.20;99.90;;;;;;5007800;28;20026;-46
2022/09/14 08:58:08;;;;;;;4.10;1.80;;;16.20;99.90;;;;;;5011067;28;20914;-45
2022/09/14 09:00:41;;;;;;;2.73;1.50;;;16.30;99.90;;;;;;5010767;28;20049;-48
2022/09/14 09:03:40;;;;;;;9.63;3.55;;;16.30;99.90;;;;;;5009480;28;20299;-57
2022/09/14 09:06:29;;;;;;;4.13;1.77;;;16.40;99.90;;;;;;4999005;28;20030;-48
2022/09/14 09:09:07;;;;;;;6.82;3.67;;;16.40;99.90;;;;;;5011425;28;20038;-42
2022/09/14 09:11:45;;;;;;;5.45;2.28;;;16.50;99.90;;;;;;5006765;28;20038;-49
2022/09/14 09:14:28;;;;;;;4.10;2.60;;;16.60;99.90;;;;;;5006415;28;20018;-49
2022/09/14 09:16:56;;;;;;;7.90;3.08;;;16.60;99.90;;;;;;4991707;28;20030;-42
2022/09/14 09:19:49;;;;;;;6.93;3.20;;;16.70;99.90;;;;;;4991468;28;20038;-43
2022/09/14 09:22:19;;;;;;;6.10;2.85;;;16.70;99.90;;;;;;4991498;28;20022;-43
2022/09/14 09:24:50;;;;;;;6.65;2.83;;;16.80;99.90;;;;;;4991583;28;20041;-44
2022/09/14 09:27:16;;;;;;;7.32;3.05;;;16.80;99.90;;;;;;4998560;28;20512;-45
2022/09/14 09:29:42;;;;;;;6.43;2.67;;;16.80;99.90;;;;;;4993554;28;20118;-52
2022/09/14 09:32:26;;;;;;;5.80;3.08;;;17.00;99.90;;;;;;4991632;28;20053;-51
2022/09/14 09:34:52;;;;;;;5.43;2.55;;;17.10;99.90;;;;;;4991534;28;20033;-47
2022/09/14 09:37:22;;;;;;;5.07;2.55;;;17.20;99.90;;;;;;5008498;28;20034;-51
2022/09/14 09:39:48;;;;;;;4.40;2.50;;;17.20;99.90;;;;;;4992255;28;20561;-51
2022/09/14 09:42:25;;;;;;;4.15;2.15;;;17.30;99.90;;;;;;4995946;28;20034;-48
2022/09/14 09:45:08;;;;;;;5.78;2.33;;;17.30;99.90;;;;;;4995578;28;20026;-52
2022/09/14 09:47:37;;;;;;;5.82;2.42;;;17.40;99.90;;;;;;5001623;28;20022;-54
2022/09/14 09:50:12;;;;;;;5.70;2.30;;;17.50;99.90;;;;;;5009166;28;20528;-50
2022/09/14 09:52:47;;;;;;;4.75;2.10;;;17.50;99.90;;;;;;5002333;28;20027;-57
2022/09/14 09:55:21;;;;;;;4.65;2.30;;;17.60;99.90;;;;;;5009333;28;20041;-53
2022/09/14 09:57:47;;;;;;;3.38;2.05;;;17.70;99.90;;;;;;5009305;28;20053;-47
2022/09/14 10:00:26;;;;;;;6.03;2.22;;;17.70;99.90;;;;;;4999875;28;20094;-52
2022/09/14 10:02:53;;;;;;;6.78;2.55;;;17.70;99.90;;;;;;4995296;28;20053;-46
2022/09/14 10:05:21;;;;;;;3.92;2.25;;;17.60;99.90;;;;;;4994834;28;20037;-54
2022/09/14 10:08:03;;;;;;;5.88;3.05;;;17.60;99.90;;;;;;5005329;28;20026;-52
2022/09/14 10:10:38;;;;;;;6.40;2.63;;;17.60;99.90;;;;;;5014215;28;20049;-50
2022/09/14 10:13:11;;;;;;;6.15;3.25;;;17.60;99.90;;;;;;5014436;28;20397;-50
2022/09/14 10:15:37;;;;;;;6.25;3.00;;;17.60;99.90;;;;;;5014430;28;20014;-49
2022/09/14 10:18:12;;;;;;;4.00;2.75;;;17.50;99.90;;;;;;5014424;28;20029;-49
2022/09/14 10:20:43;;;;;;;5.82;3.38;;;17.60;99.90;;;;;;5014293;28;20040;-54
2022/09/14 10:23:30;;;;;;;5.65;3.60;;;17.60;99.90;;;;;;5014239;28;20060;-48
2022/09/14 10:26:17;;;;;;;6.35;3.55;;;17.60;99.90;;;;;;5014106;28;20521;-54
2022/09/14 10:28:45;;;;;;;5.70;3.67;;;17.70;99.90;;;;;;5014263;28;20026;-44
2022/09/14 10:31:11;;;;;;;6.35;3.78;;;17.80;99.90;;;;;;5013982;28;20037;-57
2022/09/14 10:33:37;;;;;;;6.50;3.78;;;17.80;99.90;;;;;;5014284;28;20018;-51
2022/09/14 10:36:15;;;;;;;5.45;3.20;;;17.80;99.90;;;;;;5013941;28;20033;-47
2022/09/14 10:38:51;;;;;;;6.07;3.22;;;17.90;99.90;;;;;;5014125;28;20014;-44
2022/09/14 10:41:21;;;;;;;5.85;3.70;;;17.90;99.90;;;;;;5008954;28;20084;-49
2022/09/14 10:44:02;;;;;;;7.57;3.80;;;18.00;99.90;;;;;;5001728;28;20049;-45
2022/09/14 10:46:47;;;;;;;9.32;3.95;;;18.00;99.90;;;;;;5011306;28;20481;-46
2022/09/14 10:49:12;;;;;;;6.43;3.53;;;18.10;99.90;;;;;;5004827;28;20038;-51
2022/09/14 10:52:04;;;;;;;8.13;3.60;;;18.20;99.90;;;;;;4993962;28;20089;-44
2022/09/14 10:54:36;;;;;;;7.07;3.45;;;18.20;99.90;;;;;;4995673;28;20497;-49
2022/09/14 10:57:23;;;;;;;6.95;3.72;;;18.30;99.90;;;;;;5013380;28;20029;-52
2022/09/14 11:00:08;;;;;;;7.60;3.60;;;18.40;99.90;;;;;;5013556;28;20040;-45
2022/09/14 11:02:42;;;;;;;6.00;3.63;;;18.40;99.90;;;;;;5013524;28;20088;-47
2022/09/14 11:05:14;;;;;;;11.15;3.72;;;18.50;99.90;;;;;;5013483;28;20029;-52
2022/09/14 11:08:05;;;;;;;6.28;3.63;;;18.50;99.90;;;;;;5013313;28;20358;-48
2022/09/14 11:10:40;;;;;;;7.10;3.33;;;18.60;99.90;;;;;;5007524;28;20145;-51
2022/09/14 11:13:35;;;;;;;7.28;3.20;;;18.60;99.90;;;;;;4993779;28;20034;-45
2022/09/14 11:16:00;;;;;;;7.43;3.20;;;18.70;99.90;;;;;;4993702;28;20113;-47
2022/09/14 11:18:50;;;;;;;8.32;3.58;;;18.80;99.90;;;;;;4995918;28;20102;-48
2022/09/14 11:21:32;;;;;;;6.53;3.00;;;18.80;99.90;;;;;;4993449;28;20034;-44
2022/09/14 11:24:13;;;;;;;6.25;3.45;;;18.70;99.90;;;;;;4993513;28;20034;-47
2022/09/14 11:26:44;;;;;;;10.10;3.60;;;18.80;99.90;;;;;;5005057;28;20496;-50
2022/09/14 11:29:27;;;;;;;6.38;3.25;;;18.90;99.90;;;;;;5012923;28;20041;-49
2022/09/14 11:32:10;;;;;;;6.43;2.95;;;18.90;99.90;;;;;;5013157;28;20430;-52
2022/09/14 11:35:08;;;;;;;9.82;3.60;;;18.90;99.90;;;;;;5012908;28;20084;-49
2022/09/14 11:37:55;;;;;;;10.10;3.75;;;18.80;99.90;;;;;;4995192;28;20045;-42
2022/09/14 11:40:43;;;;;;;7.32;3.47;;;18.80;99.90;;;;;;5009107;28;20121;-46
2022/09/14 11:43:20;;;;;;;6.55;3.20;;;18.70;99.90;;;;;;5004464;28;20478;-47
2022/09/14 11:45:50;;;;;;;6.93;3.00;;;18.60;99.90;;;;;;4993186;28;20015;-50
2022/09/14 11:48:23;;;;;;;12.23;3.78;;;18.70;99.90;;;;;;4992911;28;20160;-50
2022/09/14 11:50:57;;;;;;;7.30;3.58;;;18.70;99.90;;;;;;4993229;28;20100;-44
2022/09/14 11:53:24;;;;;;;7.97;4.05;;;18.70;99.90;;;;;;4993609;28;20014;-55
2022/09/14 11:55:50;;;;;;;8.77;4.40;;;18.90;99.90;;;;;;5012363;28;20402;-50
2022/09/14 11:58:30;;;;;;;10.48;4.32;;;19.00;99.90;;;;;;4992853;28;20436;-49
2022/09/14 12:01:24;;;;;;;8.25;3.90;;;19.00;99.90;;;;;;4996178;28;20034;-51
2022/09/14 12:04:08;;;;;;;6.03;3.63;;;18.90;99.90;;;;;;4995038;28;20022;-43
2022/09/14 12:06:37;;;;;;;9.82;3.70;;;18.80;99.90;;;;;;4994628;28;20119;-54
2022/09/14 12:09:29;;;;;;;6.57;3.58;;;18.70;99.90;;;;;;4997289;28;20387;-50
2022/09/14 12:11:58;;;;;;;4.93;3.45;;;18.70;99.90;;;;;;4982886;28;20079;-45
2022/09/14 12:14:27;;;;;;;8.05;3.72;;;18.70;99.90;;;;;;4999717;28;20485;-51
2022/09/14 12:17:15;;;;;;;6.63;3.45;;;18.70;99.90;;;;;;4992093;28;20505;-51
2022/09/14 12:19:43;;;;;;;8.15;3.78;;;18.70;99.90;;;;;;4992341;28;20041;-48
2022/09/14 12:22:27;;;;;;;6.15;3.70;;;18.70;99.90;;;;;;5001032;28;20101;-52
2022/09/14 12:25:01;;;;;;;7.10;4.35;;;18.60;99.90;;;;;;4992374;28;20504;-47
2022/09/14 12:27:31;;;;;;;6.55;3.88;;;18.50;99.90;;;;;;4992130;28;20504;-46
2022/09/14 12:29:57;;;;;;;13.43;4.88;;;18.50;99.90;;;;;;4992189;28;20030;-48
2022/09/14 12:32:38;;;;;;;7.05;3.97;;;18.50;99.90;;;;;;4992305;28;20038;-50
2022/09/14 12:35:31;;;;;;;9.40;4.25;;;18.40;99.90;;;;;;4992218;28;20050;-43
2022/09/14 12:37:57;;;;;;;6.95;3.95;;;18.30;99.90;;;;;;4995477;28;20567;-50
2022/09/14 12:40:33;;;;;;;11.18;4.35;;;18.20;99.90;;;;;;5008111;28;20049;-46
2022/09/14 12:43:33;;;;;;;8.40;4.60;;;18.20;99.90;;;;;;5008269;28;20025;-51
2022/09/14 12:46:06;;;;;;;9.80;4.40;;;18.30;99.90;;;;;;5008280;28;20029;-44
2022/09/14 12:48:47;;;;;;;7.45;4.20;;;18.30;99.90;;;;;;5006910;28;20018;-48
2022/09/14 12:51:29;;;;;;;8.15;4.45;;;18.40;99.90;;;;;;5008338;28;20156;-44
2022/09/14 12:53:57;;;;;;;8.82;4.53;;;18.30;99.90;;;;;;5004950;28;20026;-45
2022/09/14 12:56:26;;;;;;;9.65;4.60;;;18.30;99.90;;;;;;5010795;28;20060;-49
2022/09/14 12:59:20;;;;;;;7.50;4.05;;;18.30;99.90;;;;;;5006048;28;20375;-43
2022/09/14 13:02:17;;;;;;;8.93;4.28;;;18.20;99.90;;;;;;5008802;28;20026;-49
2022/09/14 13:04:44;;;;;;;8.25;4.60;;;18.10;99.90;;;;;;5007581;28;20047;-43
2022/09/14 13:07:21;;;;;;;12.10;4.88;;;18.00;99.90;;;;;;5003327;28;20034;-44
2022/09/14 13:09:53;;;;;;;8.38;4.18;;;17.90;99.90;;;;;;5010753;28;20101;-49
2022/09/14 13:12:40;;;;;;;10.75;4.70;;;18.00;99.90;;;;;;5006369;28;20029;-43